Time;durP1;ratioP1;P1;durP2;ratioP2;P2;SDS_P1;SDS_P2;PMS_P1;PMS_P2;Temp;Humidity;BMP_temperature;BMP_pressure;BME280_temperature;BME280_humidity;BME280_pressure;Samples;Min_cycle;Max_cycle;Signal;HPM_P1;HPM_P2
2023/01/05 00:01:09;;;;;;;12.88;1.85;;;19.90;93.30;;;;;;5050840;28;20452;-62
2023/01/05 00:03:37;;;;;;;6.35;1.20;;;19.90;93.90;;;;;;5033689;28;20389;-63
2023/01/05 00:06:07;;;;;;;12.00;2.08;;;19.90;94.30;;;;;;5044177;28;20033;-62
2023/01/05 00:08:34;;;;;;;9.63;2.53;;;19.90;93.50;;;;;;5061455;28;20041;-62
2023/01/05 00:22:31;;;;;;;12.57;1.80;;;19.90;94.70;;;;;;5041811;28;20103;-62
2023/01/05 00:25:10;;;;;;;13.77;3.38;;;20.00;94.60;;;;;;5036573;28;20078;-62
2023/01/05 00:27:38;;;;;;;14.73;2.08;;;20.10;94.90;;;;;;5041155;28;20021;-62
2023/01/05 00:30:06;;;;;;;10.93;2.38;;;20.00;95.40;;;;;;5042524;28;20113;-62
2023/01/05 00:32:33;;;;;;;8.88;2.60;;;20.00;94.90;;;;;;5041535;28;20014;-63
2023/01/05 00:35:02;;;;;;;12.07;2.45;;;20.00;95.00;;;;;;5060518;28;20020;-62
2023/01/05 00:37:32;;;;;;;17.45;2.30;;;20.00;94.50;;;;;;5058595;28;20112;-62
2023/01/05 00:40:00;;;;;;;11.52;1.60;;;20.00;95.00;;;;;;5050428;28;20013;-62
2023/01/05 00:42:28;;;;;;;11.45;2.88;;;20.10;95.80;;;;;;5052871;28;20030;-62
2023/01/05 00:44:55;;;;;;;9.43;1.73;;;20.10;95.20;;;;;;5051851;28;20105;-62
2023/01/05 00:47:22;;;;;;;19.15;2.50;;;20.10;95.40;;;;;;5054061;28;20045;-62
2023/01/05 00:49:49;;;;;;;10.70;1.85;;;19.90;95.70;;;;;;5046723;28;20057;-62
2023/01/05 00:52:16;;;;;;;10.82;1.67;;;19.60;96.50;;;;;;5064496;28;20051;-62
2023/01/05 00:54:44;;;;;;;6.10;1.42;;;19.50;97.10;;;;;;5050219;28;20025;-62
2023/01/05 00:57:12;;;;;;;13.07;2.60;;;19.40;97.90;;;;;;5055623;28;20023;-62
2023/01/05 00:59:39;;;;;;;17.42;2.75;;;19.30;98.50;;;;;;5053544;28;20036;-62
2023/01/05 01:02:07;;;;;;;9.82;1.65;;;19.40;99.10;;;;;;5047667;28;20474;-62
2023/01/05 01:04:35;;;;;;;13.43;2.58;;;19.50;99.20;;;;;;5048584;28;20479;-62
2023/01/05 01:07:02;;;;;;;9.18;1.42;;;19.50;99.30;;;;;;5051264;28;20074;-64
2023/01/05 01:09:30;;;;;;;7.90;1.60;;;19.70;98.80;;;;;;5057595;28;20037;-63
2023/01/05 01:11:57;;;;;;;12.52;3.00;;;19.90;97.70;;;;;;5051062;28;20078;-63
2023/01/05 01:14:24;;;;;;;9.80;1.70;;;20.20;97.00;;;;;;5053707;28;20063;-63
2023/01/05 01:16:51;;;;;;;11.82;2.00;;;20.30;96.60;;;;;;5054750;28;20100;-63
2023/01/05 01:19:22;;;;;;;8.15;1.60;;;20.60;96.60;;;;;;5061260;28;20028;-64
2023/01/05 01:21:49;;;;;;;16.85;2.90;;;20.80;96.60;;;;;;5058994;28;20495;-63
2023/01/05 01:24:19;;;;;;;11.77;2.25;;;21.00;95.50;;;;;;5054122;28;20036;-63
2023/01/05 01:26:47;;;;;;;14.43;2.75;;;21.10;94.80;;;;;;5065264;28;20029;-62
2023/01/05 01:29:17;;;;;;;9.13;2.65;;;21.20;95.00;;;;;;5055498;28;20033;-62
2023/01/05 01:31:48;;;;;;;12.23;2.15;;;21.20;93.60;;;;;;5057753;28;20025;-62
2023/01/05 01:34:16;;;;;;;17.50;1.95;;;21.20;94.50;;;;;;5050520;28;20025;-62
2023/01/05 01:36:44;;;;;;;13.65;2.58;;;21.10;94.70;;;;;;5052730;28;20080;-62
2023/01/05 01:39:12;;;;;;;11.30;1.98;;;21.20;95.20;;;;;;5062164;28;20021;-62
2023/01/05 01:41:40;;;;;;;7.68;3.17;;;21.20;94.90;;;;;;5057821;28;20024;-62
2023/01/05 01:45:03;;;;;;;11.20;1.80;;;21.00;95.10;;;;;;5060862;28;20086;-62
2023/01/05 01:47:31;;;;;;;11.63;1.67;;;20.80;93.90;;;;;;5043337;28;20029;-62
2023/01/05 01:50:02;;;;;;;11.32;1.98;;;20.80;94.30;;;;;;5059109;28;20106;-60
2023/01/05 01:52:32;;;;;;;9.40;1.85;;;20.80;93.80;;;;;;5031876;28;20034;-62
2023/01/05 01:55:00;;;;;;;8.77;1.38;;;20.70;94.00;;;;;;5014254;28;20393;-61
2023/01/05 01:57:28;;;;;;;11.75;1.48;;;20.80;94.00;;;;;;5029134;28;20024;-61
2023/01/05 01:59:58;;;;;;;5.97;1.50;;;20.90;93.50;;;;;;5020786;28;20033;-61
2023/01/05 02:02:27;;;;;;;8.30;1.30;;;20.90;92.90;;;;;;5022140;28;20494;-61
2023/01/05 02:04:59;;;;;;;14.00;4.03;;;21.00;93.70;;;;;;5012839;28;20025;-61
2023/01/05 02:07:28;;;;;;;12.10;2.45;;;21.10;92.80;;;;;;5018034;28;20053;-61
2023/01/05 02:09:55;;;;;;;11.48;2.60;;;21.20;93.80;;;;;;5010021;28;20030;-63
2023/01/05 02:12:53;;;;;;;6.60;2.33;;;21.60;93.00;;;;;;5000419;28;20030;-62
2023/01/05 02:15:45;;;;;;;10.18;1.92;;;21.70;91.90;;;;;;5014490;28;20101;-62
2023/01/05 02:18:28;;;;;;;7.90;1.88;;;22.20;89.90;;;;;;5008362;28;20022;-62
2023/01/05 02:21:17;;;;;;;9.52;1.77;;;22.50;89.50;;;;;;4992179;28;20669;-62
2023/01/05 02:24:18;;;;;;;7.65;2.10;;;22.40;86.70;;;;;;5014423;28;20056;-61
2023/01/05 02:27:06;;;;;;;8.77;2.50;;;22.20;88.50;;;;;;5004872;28;20058;-62
2023/01/05 02:30:14;;;;;;;9.20;2.22;;;22.20;89.60;;;;;;5012197;28;20034;-60
2023/01/05 02:33:11;;;;;;;11.93;2.05;;;22.10;90.40;;;;;;5032192;28;20413;-59
2023/01/05 02:36:05;;;;;;;8.63;2.08;;;21.70;89.60;;;;;;5038984;28;20025;-59
2023/01/05 02:38:44;;;;;;;7.32;1.20;;;21.40;88.80;;;;;;5021054;28;20056;-59
2023/01/05 02:41:23;;;;;;;7.18;1.42;;;21.10;90.60;;;;;;5017327;28;20029;-60
2023/01/05 02:43:50;;;;;;;8.52;2.00;;;20.90;91.40;;;;;;5020277;28;20033;-60
2023/01/05 02:46:18;;;;;;;7.78;1.50;;;20.80;91.90;;;;;;5027444;28;20451;-59
2023/01/05 02:48:48;;;;;;;10.18;2.10;;;20.90;92.00;;;;;;5017756;28;20092;-59
2023/01/05 02:51:20;;;;;;;12.13;1.70;;;20.90;91.80;;;;;;5065247;28;20059;-59
2023/01/05 02:53:54;;;;;;;11.15;2.28;;;20.80;91.90;;;;;;5062861;28;20473;-60
2023/01/05 02:56:31;;;;;;;13.88;2.20;;;20.90;92.70;;;;;;5055564;28;20107;-62
2023/01/05 02:59:02;;;;;;;6.97;1.70;;;21.00;92.20;;;;;;5039669;28;20023;-62
2023/01/05 03:01:31;;;;;;;12.75;2.72;;;21.00;92.70;;;;;;5062817;28;20024;-61
2023/01/05 03:04:06;;;;;;;7.40;1.60;;;21.00;92.30;;;;;;5063764;28;20024;-61
2023/01/05 03:06:55;;;;;;;8.27;2.10;;;21.00;92.80;;;;;;5054687;28;20067;-60
2023/01/05 03:09:26;;;;;;;10.55;1.83;;;20.80;92.60;;;;;;5062006;28;20029;-61
2023/01/05 03:15:28;;;;;;;12.52;1.70;;;20.70;92.40;;;;;;5044386;28;20031;-61
2023/01/05 03:17:59;;;;;;;10.15;1.90;;;20.70;92.90;;;;;;5056136;28;20028;-61
2023/01/05 03:20:30;;;;;;;7.90;1.50;;;20.70;93.20;;;;;;5038800;28;20024;-60
2023/01/05 03:37:39;;;;;;;7.47;1.55;;;20.50;93.60;;;;;;5062445;28;20044;-61
2023/01/05 03:40:29;;;;;;;9.15;2.50;;;20.60;93.40;;;;;;5064301;28;20075;-61
2023/01/05 03:42:57;;;;;;;9.80;2.28;;;20.50;93.20;;;;;;5039075;28;20017;-61
2023/01/05 03:45:32;;;;;;;11.88;2.88;;;20.60;93.00;;;;;;5062290;28;20017;-61
2023/01/05 03:47:58;;;;;;;;;;;20.40;93.70;;;;;;5063393;28;20441;-62
2023/01/05 03:50:26;;;;;;;10.13;2.47;;;20.40;93.70;;;;;;5053918;28;19916;-62
2023/01/05 03:52:53;;;;;;;9.95;1.58;;;20.30;94.60;;;;;;5036214;28;20052;-62
2023/01/05 03:55:20;;;;;;;7.88;1.80;;;20.30;93.90;;;;;;5038313;28;20024;-64
2023/01/05 03:57:47;;;;;;;10.85;1.42;;;20.40;93.00;;;;;;5059122;28;20107;-62
2023/01/05 04:00:15;;;;;;;10.00;1.83;;;20.50;93.60;;;;;;5052957;28;20025;-62
2023/01/05 04:02:42;;;;;;;9.82;1.92;;;20.50;92.80;;;;;;5064105;28;20033;-62
2023/01/05 04:05:09;;;;;;;9.75;1.85;;;20.60;92.50;;;;;;5053399;28;20028;-62
2023/01/05 04:07:37;;;;;;;11.65;1.80;;;20.70;92.30;;;;;;5057504;28;20491;-62
2023/01/05 04:10:04;;;;;;;8.43;1.75;;;20.80;92.10;;;;;;5060783;28;20054;-62
2023/01/05 04:12:32;;;;;;;12.82;1.60;;;21.00;91.70;;;;;;5049635;28;20021;-63
2023/01/05 04:14:59;;;;;;;12.95;1.67;;;21.30;92.00;;;;;;5062759;28;20535;-63
2023/01/05 04:17:26;;;;;;;13.30;2.90;;;21.40;91.90;;;;;;5055456;28;20020;-62
2023/01/05 04:19:53;;;;;;;8.15;1.60;;;21.50;91.30;;;;;;5054603;28;20029;-63
2023/01/05 04:22:21;;;;;;;9.75;1.88;;;21.60;91.20;;;;;;5062901;28;20074;-63
2023/01/05 04:24:48;;;;;;;11.10;2.05;;;21.60;90.10;;;;;;5039601;28;20025;-63
2023/01/05 04:27:15;;;;;;;11.73;1.50;;;21.70;89.40;;;;;;5036664;28;20497;-63
2023/01/05 04:29:42;;;;;;;12.73;2.08;;;21.70;89.30;;;;;;5053823;28;20033;-64
2023/01/05 04:32:10;;;;;;;7.95;1.35;;;21.70;83.40;;;;;;5055312;28;20017;-64
2023/01/05 04:34:37;;;;;;;7.90;1.63;;;21.80;84.20;;;;;;5066012;28;20529;-63
2023/01/05 04:37:04;;;;;;;10.65;1.70;;;21.90;82.90;;;;;;5034059;28;20111;-63
2023/01/05 04:39:31;;;;;;;10.70;1.83;;;22.00;82.70;;;;;;5045839;28;20020;-62
2023/01/05 04:41:59;;;;;;;10.38;2.63;;;22.10;82.90;;;;;;5042010;28;20060;-63
2023/01/05 04:44:26;;;;;;;12.38;2.50;;;22.30;80.30;;;;;;5056197;28;20025;-62
2023/01/05 04:46:53;;;;;;;20.20;2.63;;;22.40;81.10;;;;;;5066115;28;20032;-63
2023/01/05 04:49:20;;;;;;;12.88;1.70;;;22.40;83.30;;;;;;5061404;28;20045;-64
2023/01/05 04:51:47;;;;;;;12.55;1.55;;;22.60;81.30;;;;;;5049400;28;20116;-65
2023/01/05 04:54:15;;;;;;;13.05;1.58;;;22.80;81.90;;;;;;5047714;28;20014;-64
2023/01/05 04:56:43;;;;;;;8.82;1.35;;;22.50;84.20;;;;;;5059684;28;20033;-61
2023/01/05 04:59:10;;;;;;;13.70;2.00;;;22.50;82.90;;;;;;5034826;28;20025;-62
2023/01/05 05:01:37;;;;;;;9.70;1.30;;;22.40;84.90;;;;;;5035763;28;20025;-61
2023/01/05 05:04:05;;;;;;;8.63;1.33;;;22.40;84.50;;;;;;5041109;28;20036;-62
2023/01/05 05:06:32;;;;;;;10.23;1.60;;;22.40;86.40;;;;;;5041248;28;20063;-61
2023/01/05 05:08:59;;;;;;;10.20;1.88;;;22.50;85.90;;;;;;5040563;28;20063;-62
2023/01/05 05:11:26;;;;;;;15.40;3.15;;;22.60;84.50;;;;;;5040828;28;20100;-62
2023/01/05 05:13:54;;;;;;;12.25;2.10;;;22.80;82.80;;;;;;5041224;28;20021;-63
2023/01/05 05:16:21;;;;;;;9.95;2.00;;;22.80;80.20;;;;;;5042758;28;20602;-62
2023/01/05 05:18:48;;;;;;;10.80;2.13;;;22.70;80.90;;;;;;5041024;28;20028;-61
2023/01/05 05:21:15;;;;;;;7.63;1.40;;;22.60;80.00;;;;;;5040196;28;20112;-61
2023/01/05 05:23:43;;;;;;;7.93;1.33;;;22.50;79.80;;;;;;5035230;28;20060;-62
2023/01/05 05:26:10;;;;;;;9.82;2.50;;;22.30;80.50;;;;;;5038364;28;20037;-62
2023/01/05 05:28:37;;;;;;;8.80;1.45;;;22.10;82.90;;;;;;5038509;28;20098;-62
2023/01/05 05:31:04;;;;;;;7.45;1.70;;;22.20;82.60;;;;;;5042000;28;20061;-62
2023/01/05 05:33:32;;;;;;;14.70;2.25;;;22.00;83.20;;;;;;5042394;28;20025;-62
2023/01/05 05:35:59;;;;;;;11.85;1.90;;;21.90;83.90;;;;;;5044465;28;20083;-62
2023/01/05 05:38:26;;;;;;;15.93;3.67;;;21.70;85.20;;;;;;5049718;28;20167;-61
2023/01/05 05:40:53;;;;;;;15.25;2.25;;;21.40;89.60;;;;;;5044855;28;20454;-61
2023/01/05 05:43:20;;;;;;;8.98;2.45;;;21.00;90.90;;;;;;5048228;28;20024;-61
2023/01/05 05:45:48;;;;;;;8.73;1.50;;;20.60;92.60;;;;;;5045060;28;20025;-61
2023/01/05 05:48:15;;;;;;;7.85;2.08;;;20.40;93.70;;;;;;5039404;28;20057;-61
2023/01/05 05:50:43;;;;;;;15.55;1.85;;;20.10;93.90;;;;;;5045995;28;20090;-61
2023/01/05 05:53:10;;;;;;;8.30;1.77;;;20.00;94.60;;;;;;5046242;28;20258;-61
2023/01/05 05:55:37;;;;;;;9.68;1.23;;;19.90;95.10;;;;;;5044100;28;20026;-61
2023/01/05 05:58:05;;;;;;;7.55;1.42;;;20.00;95.30;;;;;;5033958;28;20051;-61
2023/01/05 06:00:32;;;;;;;9.88;1.58;;;19.90;94.80;;;;;;5052011;28;20036;-61
2023/01/05 06:02:59;;;;;;;9.65;1.92;;;19.70;94.10;;;;;;5063335;28;20025;-61
2023/01/05 06:05:26;;;;;;;9.70;1.35;;;19.70;94.20;;;;;;5043363;28;20112;-61
2023/01/05 06:07:54;;;;;;;6.13;1.35;;;19.80;93.90;;;;;;5045999;28;20136;-61
2023/01/05 06:10:21;;;;;;;11.10;1.45;;;19.80;92.40;;;;;;5037263;28;20117;-61
2023/01/05 06:12:48;;;;;;;6.40;1.40;;;19.90;92.90;;;;;;5045064;28;20051;-61
2023/01/05 06:15:15;;;;;;;7.38;1.10;;;20.00;91.50;;;;;;5060663;28;20024;-61
2023/01/05 06:17:44;;;;;;;3.33;0.80;;;19.90;90.90;;;;;;5034937;28;20056;-60
2023/01/05 06:20:11;;;;;;;5.90;1.80;;;19.80;90.20;;;;;;5033301;28;20032;-61
2023/01/05 06:22:39;;;;;;;6.18;1.35;;;19.80;90.30;;;;;;5042092;28;20036;-61
2023/01/05 06:25:07;;;;;;;7.32;1.25;;;19.80;90.80;;;;;;5047203;28;20120;-62
2023/01/05 06:27:34;;;;;;;13.70;1.58;;;19.80;90.50;;;;;;5039366;28;20021;-62
2023/01/05 06:30:02;;;;;;;5.43;1.17;;;19.70;90.90;;;;;;5041071;28;20041;-61
2023/01/05 06:32:30;;;;;;;5.05;1.20;;;19.70;91.10;;;;;;5037067;28;20108;-61
2023/01/05 06:34:57;;;;;;;7.00;1.55;;;19.80;91.50;;;;;;5048841;28;20032;-61
2023/01/05 06:37:24;;;;;;;5.75;2.38;;;19.80;90.60;;;;;;5051775;28;20095;-61
2023/01/05 06:39:53;;;;;;;5.07;0.93;;;19.80;91.20;;;;;;5037781;28;20030;-60
2023/01/05 06:42:20;;;;;;;11.38;1.38;;;19.80;91.30;;;;;;5041625;28;20680;-60
2023/01/05 06:44:47;;;;;;;6.15;1.38;;;19.80;90.30;;;;;;5056120;28;20028;-62
2023/01/05 06:47:15;;;;;;;5.80;0.90;;;19.70;90.20;;;;;;5054288;28;20025;-62
2023/01/05 06:49:42;;;;;;;7.25;1.17;;;19.60;90.40;;;;;;5053202;28;20068;-59
2023/01/05 06:52:09;;;;;;;6.85;0.88;;;19.50;90.80;;;;;;5045759;28;20044;-59
2023/01/05 06:54:36;;;;;;;5.78;1.05;;;19.50;90.70;;;;;;5041561;28;20444;-61
2023/01/05 06:57:05;;;;;;;5.68;1.17;;;19.50;90.80;;;;;;5042011;28;20397;-60
2023/01/05 06:59:33;;;;;;;3.92;1.05;;;19.40;91.20;;;;;;5042736;28;20029;-60
2023/01/05 07:02:00;;;;;;;8.95;1.48;;;19.50;91.00;;;;;;5042951;28;20017;-59
2023/01/05 07:04:27;;;;;;;6.40;1.42;;;19.50;90.50;;;;;;5043643;28;20028;-60
2023/01/05 07:06:55;;;;;;;7.78;1.23;;;19.50;90.50;;;;;;5051327;28;20037;-59
2023/01/05 07:09:22;;;;;;;7.38;1.17;;;19.40;91.40;;;;;;5042064;28;20033;-59
2023/01/05 07:11:49;;;;;;;6.60;1.40;;;19.40;90.60;;;;;;5036068;28;20021;-59
2023/01/05 07:14:16;;;;;;;6.75;1.20;;;19.40;91.30;;;;;;5040720;28;20025;-61
2023/01/05 07:16:44;;;;;;;7.18;1.00;;;19.40;91.30;;;;;;5045346;28;20022;-62
2023/01/05 07:19:11;;;;;;;11.00;1.25;;;19.30;91.10;;;;;;5045890;28;20020;-62
2023/01/05 07:21:38;;;;;;;6.00;1.13;;;19.30;91.50;;;;;;5054105;28;20337;-61
2023/01/05 07:24:06;;;;;;;9.45;1.20;;;19.30;92.00;;;;;;5046654;28;20025;-60
2023/01/05 07:26:33;;;;;;;5.72;1.27;;;19.30;91.90;;;;;;5045676;28;20029;-61
2023/01/05 07:29:00;;;;;;;5.90;2.45;;;19.20;91.80;;;;;;5041950;28;20479;-62
2023/01/05 07:31:27;;;;;;;7.10;1.23;;;19.20;92.50;;;;;;5043065;28;20025;-62
2023/01/05 07:33:54;;;;;;;13.13;1.60;;;19.10;92.70;;;;;;5059150;28;20389;-63
2023/01/05 07:36:22;;;;;;;8.18;1.58;;;19.10;92.90;;;;;;5040139;28;20068;-63
2023/01/05 07:38:51;;;;;;;7.40;1.60;;;19.00;93.10;;;;;;5049447;28;20098;-63
2023/01/05 07:41:18;;;;;;;7.68;1.10;;;18.90;92.40;;;;;;5040308;28;20021;-60
2023/01/05 07:43:49;;;;;;;9.55;1.15;;;18.90;93.00;;;;;;5032843;28;20120;-61
2023/01/05 07:46:16;;;;;;;6.28;1.45;;;18.90;92.20;;;;;;5030434;28;20022;-61
2023/01/05 07:48:43;;;;;;;7.80;1.73;;;18.90;92.20;;;;;;5032094;28;20121;-62
2023/01/05 07:51:11;;;;;;;7.13;1.42;;;18.90;92.50;;;;;;5035506;28;20035;-62
2023/01/05 07:53:38;;;;;;;8.10;1.48;;;18.90;92.70;;;;;;5037689;28;20392;-61
2023/01/05 07:56:07;;;;;;;5.18;1.15;;;18.80;93.10;;;;;;5031615;28;20022;-61
2023/01/05 07:58:34;;;;;;;8.77;1.25;;;18.80;92.80;;;;;;5032081;28;20445;-61
2023/01/05 08:01:07;;;;;;;10.13;1.35;;;18.70;92.50;;;;;;5038181;28;20106;-62
2023/01/05 08:03:34;;;;;;;4.47;1.02;;;18.70;92.60;;;;;;5046773;28;20022;-63
2023/01/05 08:06:10;;;;;;;6.85;1.13;;;18.70;92.00;;;;;;5044716;28;20032;-61
2023/01/05 08:08:38;;;;;;;4.78;1.08;;;18.70;92.40;;;;;;5037166;28;20034;-61
2023/01/05 08:11:07;;;;;;;9.00;1.35;;;18.60;92.30;;;;;;5034306;28;20079;-61
2023/01/05 08:16:20;;;;;;;8.48;1.10;;;18.60;92.00;;;;;;5032458;28;20070;-60
2023/01/05 08:18:48;;;;;;;7.35;1.38;;;18.60;91.80;;;;;;5033339;28;20039;-61
2023/01/05 08:21:15;;;;;;;8.00;1.20;;;18.60;91.80;;;;;;5044097;28;20029;-61
2023/01/05 08:23:44;;;;;;;8.02;1.33;;;18.50;91.90;;;;;;5035093;28;20048;-60
2023/01/05 08:26:14;;;;;;;5.80;1.02;;;18.60;91.80;;;;;;5031670;28;20021;-61
2023/01/05 08:28:42;;;;;;;10.10;1.13;;;18.50;91.80;;;;;;5049844;28;20127;-61
2023/01/05 08:31:16;;;;;;;7.43;1.48;;;18.50;92.30;;;;;;5053755;28;20032;-62
2023/01/05 08:33:44;;;;;;;3.92;1.02;;;18.50;92.20;;;;;;5049556;28;20039;-59
2023/01/05 08:36:18;;;;;;;8.68;2.17;;;18.50;92.50;;;;;;5051227;28;20033;-60
2023/01/05 08:38:49;;;;;;;6.00;1.08;;;18.40;93.30;;;;;;5060573;28;20132;-59
2023/01/05 08:41:18;;;;;;;3.08;0.77;;;18.40;92.00;;;;;;5041082;28;20029;-60
2023/01/05 08:43:50;;;;;;;4.93;1.23;;;18.40;92.30;;;;;;5046661;28;20044;-60
2023/01/05 08:46:22;;;;;;;4.72;1.15;;;18.40;92.50;;;;;;5037394;28;20033;-60
2023/01/05 08:48:51;;;;;;;3.63;1.13;;;18.30;92.40;;;;;;5050032;28;20056;-62
2023/01/05 08:51:18;;;;;;;8.38;1.30;;;18.30;91.70;;;;;;5036808;28;20162;-60
2023/01/05 08:53:46;;;;;;;6.30;0.80;;;18.20;91.40;;;;;;5047147;28;20138;-59
2023/01/05 08:56:14;;;;;;;6.55;1.55;;;18.20;91.30;;;;;;5040716;28;20029;-60
2023/01/05 08:58:42;;;;;;;3.42;0.70;;;18.20;91.40;;;;;;5038809;28;20378;-61
2023/01/05 09:01:11;;;;;;;7.40;1.00;;;18.10;91.00;;;;;;5039450;28;20090;-60
2023/01/05 09:03:38;;;;;;;4.43;1.33;;;18.10;91.00;;;;;;5047897;28;20036;-60
2023/01/05 09:06:08;;;;;;;9.00;1.17;;;18.10;91.50;;;;;;5045009;28;20029;-60
2023/01/05 09:08:35;;;;;;;6.28;1.10;;;18.00;91.70;;;;;;5041088;28;20025;-60
2023/01/05 09:11:08;;;;;;;6.32;1.13;;;17.90;91.70;;;;;;5040041;28;20036;-59
2023/01/05 09:13:36;;;;;;;5.60;0.95;;;17.90;92.00;;;;;;5045100;28;20033;-61
2023/01/05 09:16:11;;;;;;;5.00;0.85;;;17.80;92.00;;;;;;5058341;28;20774;-60
2023/01/05 09:18:40;;;;;;;6.72;0.90;;;17.70;92.40;;;;;;5056130;28;20024;-62
2023/01/05 09:21:08;;;;;;;4.72;1.15;;;17.60;92.70;;;;;;5035525;28;20112;-60
2023/01/05 09:23:37;;;;;;;5.47;0.82;;;17.60;93.30;;;;;;5052134;28;20056;-61
2023/01/05 09:26:06;;;;;;;7.65;1.00;;;17.50;93.60;;;;;;5048318;28;20030;-62
2023/01/05 09:28:38;;;;;;;6.85;1.52;;;17.50;94.30;;;;;;5035539;28;20038;-62
2023/01/05 09:31:18;;;;;;;7.25;1.33;;;17.40;94.20;;;;;;5047431;28;20017;-59
2023/01/05 09:33:46;;;;;;;10.52;1.20;;;17.40;94.70;;;;;;5041207;28;20036;-59
2023/01/05 09:36:14;;;;;;;5.55;1.40;;;17.40;94.80;;;;;;5047795;28;20021;-59
2023/01/05 09:38:42;;;;;;;7.88;1.73;;;17.40;95.70;;;;;;5035197;28;20103;-60
2023/01/05 09:41:33;;;;;;;8.65;1.73;;;17.50;94.80;;;;;;5050656;28;20035;-60
2023/01/05 09:44:12;;;;;;;5.15;0.80;;;17.50;94.70;;;;;;5054249;28;20090;-60
2023/01/05 09:46:43;;;;;;;3.28;0.95;;;17.50;95.30;;;;;;5043816;28;20030;-62
2023/01/05 09:49:15;;;;;;;5.63;1.13;;;17.50;95.40;;;;;;5038919;28;20078;-59
2023/01/05 09:51:43;;;;;;;6.72;1.17;;;17.50;95.10;;;;;;5045408;28;20029;-61
2023/01/05 09:54:18;;;;;;;6.97;1.02;;;17.60;94.90;;;;;;5034670;28;20591;-60
2023/01/05 09:56:48;;;;;;;6.80;1.52;;;17.60;95.30;;;;;;5042892;28;20029;-60
2023/01/05 09:59:24;;;;;;;7.82;0.95;;;17.60;95.30;;;;;;5039790;28;20402;-60
2023/01/05 10:01:53;;;;;;;5.95;1.20;;;17.60;95.50;;;;;;5039151;28;21602;-60
2023/01/05 10:04:26;;;;;;;5.97;1.08;;;17.50;95.80;;;;;;5042420;28;20036;-60
2023/01/05 10:06:58;;;;;;;7.18;1.08;;;17.50;95.80;;;;;;5034751;28;20028;-62
2023/01/05 10:09:38;;;;;;;13.63;1.40;;;17.50;95.80;;;;;;5041967;28;20045;-61
2023/01/05 10:15:11;;;;;;;6.15;1.00;;;17.50;96.20;;;;;;5035670;28;20409;-60
2023/01/05 10:17:40;;;;;;;7.63;1.20;;;17.40;96.10;;;;;;5041137;28;20025;-60
2023/01/05 10:20:32;;;;;;;7.43;1.35;;;17.40;96.00;;;;;;5040932;28;20099;-60
2023/01/05 10:23:17;;;;;;;12.05;1.67;;;17.40;96.80;;;;;;5040178;28;20052;-60
2023/01/05 10:25:49;;;;;;;5.40;1.10;;;17.40;96.30;;;;;;5045387;28;20025;-62
2023/01/05 10:28:30;;;;;;;12.30;1.40;;;17.40;97.10;;;;;;5040567;28;20478;-61
2023/01/05 10:30:58;;;;;;;10.18;1.13;;;17.30;96.80;;;;;;5043218;28;20078;-60
2023/01/05 10:33:54;;;;;;;10.88;1.45;;;17.30;96.90;;;;;;5038578;28;20117;-60
2023/01/05 10:36:50;;;;;;;8.00;0.98;;;17.30;97.30;;;;;;5042728;28;20028;-60
2023/01/05 10:39:28;;;;;;;9.20;1.48;;;17.40;97.20;;;;;;5043817;28;20029;-60
2023/01/05 10:42:34;;;;;;;15.45;1.80;;;17.30;97.50;;;;;;5034401;28;20040;-60
2023/01/05 10:45:05;;;;;;;6.25;1.10;;;17.30;98.10;;;;;;5041992;28;20032;-60
2023/01/05 10:47:37;;;;;;;11.98;2.10;;;17.30;98.40;;;;;;5049864;28;20037;-60
2023/01/05 10:50:18;;;;;;;10.07;1.58;;;17.30;98.30;;;;;;5050740;28;20072;-60
2023/01/05 10:52:47;;;;;;;9.63;1.92;;;17.30;99.10;;;;;;5052476;28;20021;-60
2023/01/05 10:55:17;;;;;;;7.45;2.35;;;17.20;99.10;;;;;;5054666;28;20025;-60
2023/01/05 10:57:46;;;;;;;6.93;1.40;;;17.10;99.20;;;;;;5044719;28;20112;-60
2023/01/05 11:00:18;;;;;;;11.85;1.13;;;17.10;99.30;;;;;;5044107;28;20070;-60
2023/01/05 11:03:14;;;;;;;7.60;1.38;;;17.00;99.90;;;;;;5045852;28;20025;-60
2023/01/05 11:05:47;;;;;;;8.43;1.50;;;17.00;99.60;;;;;;5048075;28;20390;-60
2023/01/05 11:08:21;;;;;;;8.05;1.58;;;16.90;99.80;;;;;;5062924;28;20555;-60
2023/01/05 11:11:04;;;;;;;12.13;1.50;;;16.90;99.90;;;;;;5054997;28;20024;-60
2023/01/05 11:13:33;;;;;;;10.70;1.50;;;16.90;99.90;;;;;;5045904;28;20480;-60
2023/01/05 11:16:16;;;;;;;4.07;0.85;;;16.80;99.90;;;;;;5061731;28;20032;-59
2023/01/05 11:18:47;;;;;;;16.23;2.13;;;16.80;99.90;;;;;;5047094;28;20105;-60
2023/01/05 11:21:18;;;;;;;6.97;1.25;;;16.70;99.90;;;;;;5038455;28;20051;-60
2023/01/05 11:23:46;;;;;;;11.25;1.23;;;16.70;99.90;;;;;;5053248;28;20031;-60
2023/01/05 11:26:37;;;;;;;5.60;1.00;;;16.70;99.90;;;;;;5035957;28;20029;-60
2023/01/05 11:29:05;;;;;;;7.90;1.10;;;16.70;99.90;;;;;;5038420;28;20409;-60
2023/01/05 11:31:41;;;;;;;9.07;1.73;;;16.60;99.90;;;;;;5040616;28;20044;-60
2023/01/05 11:34:34;;;;;;;6.15;0.93;;;16.50;99.90;;;;;;5038418;28;20021;-60
2023/01/05 11:37:25;;;;;;;3.90;0.70;;;16.40;99.90;;;;;;5036585;28;20028;-60
2023/01/05 11:39:58;;;;;;;4.65;0.90;;;16.30;99.90;;;;;;5046968;28;20025;-60
2023/01/05 11:42:25;;;;;;;9.18;1.52;;;16.20;99.90;;;;;;5039876;28;20039;-60
2023/01/05 11:44:56;;;;;;;10.05;2.10;;;16.20;99.90;;;;;;5045606;28;20016;-60
2023/01/05 11:47:34;;;;;;;8.40;1.10;;;16.10;99.90;;;;;;5039862;28;20024;-60
2023/01/05 11:50:16;;;;;;;5.35;0.82;;;16.00;99.90;;;;;;5038487;28;20504;-60
2023/01/05 11:52:47;;;;;;;10.75;1.33;;;15.90;99.90;;;;;;5051337;28;20160;-60
2023/01/05 11:55:23;;;;;;;10.05;2.65;;;15.90;99.90;;;;;;5058558;28;20095;-60
2023/01/05 11:57:53;;;;;;;6.97;1.23;;;15.90;99.90;;;;;;5040272;28;20072;-61
2023/01/05 12:00:24;;;;;;;9.68;1.92;;;15.80;99.90;;;;;;5034866;28;20462;-60
2023/01/05 12:03:12;;;;;;;10.73;1.67;;;15.80;99.90;;;;;;5047032;28;20617;-59
2023/01/05 12:05:57;;;;;;;9.05;2.28;;;15.80;99.90;;;;;;5036209;28;20068;-60
2023/01/05 12:08:30;;;;;;;;;;;15.80;99.90;;;;;;5045917;28;20083;-60
2023/01/05 12:11:18;;;;;;;7.13;1.17;;;15.80;99.90;;;;;;5047127;28;20005;-60
2023/01/05 12:13:45;;;;;;;7.43;1.38;;;15.70;99.90;;;;;;5036230;28;20021;-60
2023/01/05 12:16:24;;;;;;;5.15;1.65;;;15.70;99.90;;;;;;5043419;28;20426;-60
2023/01/05 12:19:20;;;;;;;4.93;1.08;;;15.60;99.90;;;;;;5052877;28;20062;-61
2023/01/05 12:22:28;;;;;;;3.60;0.73;;;15.50;99.90;;;;;;5045475;28;20104;-60
2023/01/05 12:25:17;;;;;;;8.43;1.20;;;15.40;99.90;;;;;;5033391;28;20033;-60
2023/01/05 12:28:19;;;;;;;4.18;0.95;;;15.40;99.90;;;;;;5054509;28;20071;-61
2023/01/05 12:30:58;;;;;;;6.00;1.30;;;15.30;99.90;;;;;;5033566;28;20361;-61
2023/01/05 12:33:50;;;;;;;8.65;1.33;;;15.30;99.90;;;;;;5044609;28;20492;-61
2023/01/05 12:36:46;;;;;;;6.40;2.08;;;15.20;99.90;;;;;;5038094;28;20070;-62
2023/01/05 12:39:29;;;;;;;3.75;1.23;;;15.20;99.90;;;;;;5033418;28;20052;-62
2023/01/05 12:42:20;;;;;;;5.22;1.70;;;15.10;99.90;;;;;;5037973;28;20082;-61
2023/01/05 12:45:08;;;;;;;4.85;1.25;;;15.00;99.90;;;;;;5039823;28;20118;-61
2023/01/05 12:47:44;;;;;;;6.55;0.90;;;15.00;99.90;;;;;;5061204;28;20390;-62
2023/01/05 12:50:26;;;;;;;6.70;1.08;;;15.00;99.90;;;;;;5044374;28;20045;-61
2023/01/05 12:53:16;;;;;;;6.72;1.50;;;15.00;99.90;;;;;;5035066;28;20405;-61
2023/01/05 12:55:55;;;;;;;5.90;1.67;;;15.00;99.90;;;;;;5030221;28;20061;-61
2023/01/05 12:59:00;;;;;;;7.65;1.00;;;15.10;99.90;;;;;;5043471;28;20021;-61
2023/01/05 13:01:33;;;;;;;8.18;1.80;;;15.10;99.90;;;;;;5034366;28;20040;-61
2023/01/05 13:04:09;;;;;;;4.20;0.65;;;15.10;99.90;;;;;;5033161;28;20030;-61
2023/01/05 13:06:41;;;;;;;7.53;1.58;;;15.10;99.90;;;;;;5035205;28;20032;-62
2023/01/05 13:09:18;;;;;;;10.32;1.48;;;15.10;99.90;;;;;;5054312;28;20155;-61
2023/01/05 13:12:01;;;;;;;11.98;1.20;;;15.20;99.90;;;;;;5039076;28;20029;-61
2023/01/05 13:14:33;;;;;;;12.90;2.65;;;15.20;99.90;;;;;;5043532;28;20029;-62
2023/01/05 13:17:32;;;;;;;7.57;1.30;;;15.20;99.90;;;;;;5035831;28;20040;-62
2023/01/05 13:20:27;;;;;;;4.35;1.35;;;15.10;99.90;;;;;;5040781;28;20518;-62
2023/01/05 13:23:15;;;;;;;5.95;0.98;;;15.10;99.90;;;;;;5033773;28;20096;-61
2023/01/05 13:26:05;;;;;;;7.22;1.08;;;15.10;99.90;;;;;;5042036;28;20112;-61
2023/01/05 13:28:33;;;;;;;6.57;1.20;;;15.10;99.90;;;;;;5033213;28;20111;-62
2023/01/05 13:31:33;;;;;;;7.13;2.08;;;15.20;99.90;;;;;;5031103;28;20036;-62
2023/01/05 13:34:24;;;;;;;7.95;1.02;;;15.20;99.90;;;;;;5040268;28;20036;-62
2023/01/05 13:37:15;;;;;;;7.85;1.05;;;15.30;99.90;;;;;;5045069;28;20059;-61
2023/01/05 13:40:06;;;;;;;7.32;1.15;;;15.40;99.90;;;;;;5054236;28;20024;-60
2023/01/05 13:42:36;;;;;;;4.65;0.77;;;15.40;99.90;;;;;;5034135;28;20037;-62
2023/01/05 13:45:16;;;;;;;7.43;1.10;;;15.40;99.90;;;;;;5038861;28;20075;-61
2023/01/05 13:48:20;;;;;;;5.57;0.82;;;15.50;99.90;;;;;;5033862;28;20025;-61